sensor_id;sensor_type;location;lat;lon;timestamp;temperature;humidity
72277;SHT30;61204;49.980;8.358;2023-04-01T00:01:00;10.53;78.03
72277;SHT30;61204;49.980;8.358;2023-04-01T00:03:29;10.52;78.15
72277;SHT30;61204;49.980;8.358;2023-04-01T00:05:57;10.55;78.09
72277;SHT30;61204;49.980;8.358;2023-04-01T00:08:27;10.56;77.88
72277;SHT30;61204;49.980;8.358;2023-04-01T00:10:53;10.55;77.96
72277;SHT30;61204;49.980;8.358;2023-04-01T00:13:19;10.60;77.30
72277;SHT30;61204;49.980;8.358;2023-04-01T00:15:46;10.60;77.09
72277;SHT30;61204;49.980;8.358;2023-04-01T00:18:12;10.65;76.95
72277;SHT30;61204;49.980;8.358;2023-04-01T00:20:39;10.65;76.94
72277;SHT30;61204;49.980;8.358;2023-04-01T00:23:07;10.75;76.22
72277;SHT30;61204;49.980;8.358;2023-04-01T00:25:33;10.80;75.81
72277;SHT30;61204;49.980;8.358;2023-04-01T00:27:58;10.84;75.53
72277;SHT30;61204;49.980;8.358;2023-04-01T00:30:23;10.77;76.10
72277;SHT30;61204;49.980;8.358;2023-04-01T00:32:53;10.86;74.98
72277;SHT30;61204;49.980;8.358;2023-04-01T00:35:21;10.93;74.84
72277;SHT30;61204;49.980;8.358;2023-04-01T00:37:47;10.84;75.08
72277;SHT30;61204;49.980;8.358;2023-04-01T00:40:28;10.84;75.10
72277;SHT30;61204;49.980;8.358;2023-04-01T00:42:55;10.92;74.78
72277;SHT30;61204;49.980;8.358;2023-04-01T00:45:41;10.92;74.76
72277;SHT30;61204;49.980;8.358;2023-04-01T00:48:16;10.86;74.99
72277;SHT30;61204;49.980;8.358;2023-04-01T00:50:50;10.86;75.19
72277;SHT30;61204;49.980;8.358;2023-04-01T00:53:22;10.86;74.90
72277;SHT30;61204;49.980;8.358;2023-04-01T00:55:53;10.83;74.62
72277;SHT30;61204;49.980;8.358;2023-04-01T00:58:24;10.89;74.47
72277;SHT30;61204;49.980;8.358;2023-04-01T01:00:55;10.96;74.08
72277;SHT30;61204;49.980;8.358;2023-04-01T01:03:22;10.90;73.98
72277;SHT30;61204;49.980;8.358;2023-04-01T01:06:03;10.87;74.23
72277;SHT30;61204;49.980;8.358;2023-04-01T01:11:25;11.01;73.07
72277;SHT30;61204;49.980;8.358;2023-04-01T01:16:42;10.94;73.54
72277;SHT30;61204;49.980;8.358;2023-04-01T01:25:19;10.89;73.78
72277;SHT30;61204;49.980;8.358;2023-04-01T01:37:43;10.73;74.63
72277;SHT30;61204;49.980;8.358;2023-04-01T01:40:12;10.77;74.89
72277;SHT30;61204;49.980;8.358;2023-04-01T01:42:45;10.73;74.80
72277;SHT30;61204;49.980;8.358;2023-04-01T01:45:18;10.73;75.02
72277;SHT30;61204;49.980;8.358;2023-04-01T01:47:49;10.77;74.70
72277;SHT30;61204;49.980;8.358;2023-04-01T01:50:17;10.79;74.63
72277;SHT30;61204;49.980;8.358;2023-04-01T01:52:46;10.77;75.06
72277;SHT30;61204;49.980;8.358;2023-04-01T01:57:59;10.79;74.78
72277;SHT30;61204;49.980;8.358;2023-04-01T02:00:32;10.84;74.73
72277;SHT30;61204;49.980;8.358;2023-04-01T02:03:00;10.76;75.00
72277;SHT30;61204;49.980;8.358;2023-04-01T02:05:30;10.80;74.71
72277;SHT30;61204;49.980;8.358;2023-04-01T02:08:17;10.77;74.54
72277;SHT30;61204;49.980;8.358;2023-04-01T02:10:56;10.81;74.83
72277;SHT30;61204;49.980;8.358;2023-04-01T02:13:31;10.81;74.47
72277;SHT30;61204;49.980;8.358;2023-04-01T02:16:27;10.70;75.30
72277;SHT30;61204;49.980;8.358;2023-04-01T02:18:58;10.66;75.29
72277;SHT30;61204;49.980;8.358;2023-04-01T02:21:27;10.73;74.68
72277;SHT30;61204;49.980;8.358;2023-04-01T02:23:57;10.76;74.47
72277;SHT30;61204;49.980;8.358;2023-04-01T02:26:25;10.79;74.55
72277;SHT30;61204;49.980;8.358;2023-04-01T02:28:54;10.75;74.77
72277;SHT30;61204;49.980;8.358;2023-04-01T02:31:21;10.73;74.71
72277;SHT30;61204;49.980;8.358;2023-04-01T02:33:48;10.72;74.74
72277;SHT30;61204;49.980;8.358;2023-04-01T02:36:17;10.75;74.62
72277;SHT30;61204;49.980;8.358;2023-04-01T02:38:44;10.65;75.36
72277;SHT30;61204;49.980;8.358;2023-04-01T02:41:11;10.67;75.25
72277;SHT30;61204;49.980;8.358;2023-04-01T02:43:37;10.67;75.56
72277;SHT30;61204;49.980;8.358;2023-04-01T02:46:03;10.55;76.06
72277;SHT30;61204;49.980;8.358;2023-04-01T02:48:29;10.48;76.41
72277;SHT30;61204;49.980;8.358;2023-04-01T02:50:55;10.59;76.23
72277;SHT30;61204;49.980;8.358;2023-04-01T02:53:21;10.56;75.99
72277;SHT30;61204;49.980;8.358;2023-04-01T02:55:47;10.55;76.15
72277;SHT30;61204;49.980;8.358;2023-04-01T02:58:15;10.50;76.28
72277;SHT30;61204;49.980;8.358;2023-04-01T03:00:41;10.50;76.11
72277;SHT30;61204;49.980;8.358;2023-04-01T03:03:06;10.52;76.32
72277;SHT30;61204;49.980;8.358;2023-04-01T03:05:32;10.46;76.43
72277;SHT30;61204;49.980;8.358;2023-04-01T03:07:58;10.38;77.45
72277;SHT30;61204;49.980;8.358;2023-04-01T03:10:23;10.41;77.02
72277;SHT30;61204;49.980;8.358;2023-04-01T03:12:49;10.48;77.00
72277;SHT30;61204;49.980;8.358;2023-04-01T03:15:15;10.44;77.29
72277;SHT30;61204;49.980;8.358;2023-04-01T03:17:41;10.44;77.43
72277;SHT30;61204;49.980;8.358;2023-04-01T03:20:09;10.38;77.25
72277;SHT30;61204;49.980;8.358;2023-04-01T03:22:36;10.39;77.20
72277;SHT30;61204;49.980;8.358;2023-04-01T03:25:03;10.45;76.80
72277;SHT30;61204;49.980;8.358;2023-04-01T03:27:30;10.35;77.54
72277;SHT30;61204;49.980;8.358;2023-04-01T03:29:57;10.46;76.54
72277;SHT30;61204;49.980;8.358;2023-04-01T03:32:23;10.44;77.33
72277;SHT30;61204;49.980;8.358;2023-04-01T03:34:52;10.44;77.57
72277;SHT30;61204;49.980;8.358;2023-04-01T03:37:17;10.35;78.07
72277;SHT30;61204;49.980;8.358;2023-04-01T03:39:43;10.37;78.26
72277;SHT30;61204;49.980;8.358;2023-04-01T03:42:08;10.39;78.37
72277;SHT30;61204;49.980;8.358;2023-04-01T03:44:36;10.30;79.05
72277;SHT30;61204;49.980;8.358;2023-04-01T03:47:01;10.30;78.88
72277;SHT30;61204;49.980;8.358;2023-04-01T03:49:29;10.30;78.86
72277;SHT30;61204;49.980;8.358;2023-04-01T03:51:57;10.32;78.41
72277;SHT30;61204;49.980;8.358;2023-04-01T03:54:22;10.24;79.10
72277;SHT30;61204;49.980;8.358;2023-04-01T03:56:48;10.25;79.03
72277;SHT30;61204;49.980;8.358;2023-04-01T03:59:13;10.31;78.82
72277;SHT30;61204;49.980;8.358;2023-04-01T04:01:39;10.25;79.06
72277;SHT30;61204;49.980;8.358;2023-04-01T04:04:05;10.28;78.88
72277;SHT30;61204;49.980;8.358;2023-04-01T04:06:30;10.38;78.21
72277;SHT30;61204;49.980;8.358;2023-04-01T04:08:58;10.37;78.13
72277;SHT30;61204;49.980;8.358;2023-04-01T04:11:24;10.37;78.13
72277;SHT30;61204;49.980;8.358;2023-04-01T04:13:51;10.35;78.07
72277;SHT30;61204;49.980;8.358;2023-04-01T04:16:17;10.44;77.47
72277;SHT30;61204;49.980;8.358;2023-04-01T04:18:43;10.48;77.23
72277;SHT30;61204;49.980;8.358;2023-04-01T04:21:12;10.58;77.28
72277;SHT30;61204;49.980;8.358;2023-04-01T04:23:39;10.52;77.40
72277;SHT30;61204;49.980;8.358;2023-04-01T04:26:07;10.48;77.40
72277;SHT30;61204;49.980;8.358;2023-04-01T04:28:34;10.52;77.36
72277;SHT30;61204;49.980;8.358;2023-04-01T04:31:00;10.50;77.58
72277;SHT30;61204;49.980;8.358;2023-04-01T04:33:26;10.42;78.14
72277;SHT30;61204;49.980;8.358;2023-04-01T04:35:56;10.45;77.87
72277;SHT30;61204;49.980;8.358;2023-04-01T04:38:23;10.42;78.38
72277;SHT30;61204;49.980;8.358;2023-04-01T04:40:50;10.37;78.39
72277;SHT30;61204;49.980;8.358;2023-04-01T04:43:17;10.38;78.63
72277;SHT30;61204;49.980;8.358;2023-04-01T04:45:44;10.34;78.98
72277;SHT30;61204;49.980;8.358;2023-04-01T04:48:11;10.39;78.36
72277;SHT30;61204;49.980;8.358;2023-04-01T04:50:43;10.35;78.89
72277;SHT30;61204;49.980;8.358;2023-04-01T04:53:12;10.25;79.09
72277;SHT30;61204;49.980;8.358;2023-04-01T04:55:43;10.21;79.35
72277;SHT30;61204;49.980;8.358;2023-04-01T04:58:13;10.28;79.02
72277;SHT30;61204;49.980;8.358;2023-04-01T05:00:39;10.37;78.87
72277;SHT30;61204;49.980;8.358;2023-04-01T05:03:04;10.27;79.09
72277;SHT30;61204;49.980;8.358;2023-04-01T05:05:30;10.35;78.60
72277;SHT30;61204;49.980;8.358;2023-04-01T05:07:55;10.31;78.82
72277;SHT30;61204;49.980;8.358;2023-04-01T05:10:21;10.32;78.62
72277;SHT30;61204;49.980;8.358;2023-04-01T05:12:46;10.32;78.64
72277;SHT30;61204;49.980;8.358;2023-04-01T05:15:11;10.30;79.04
72277;SHT30;61204;49.980;8.358;2023-04-01T05:17:37;10.30;78.82
72277;SHT30;61204;49.980;8.358;2023-04-01T05:20:03;10.34;78.24
72277;SHT30;61204;49.980;8.358;2023-04-01T05:22:29;10.32;78.98
72277;SHT30;61204;49.980;8.358;2023-04-01T05:24:55;10.32;78.25
72277;SHT30;61204;49.980;8.358;2023-04-01T05:27:20;10.31;78.37
72277;SHT30;61204;49.980;8.358;2023-04-01T05:29:46;10.32;78.27
72277;SHT30;61204;49.980;8.358;2023-04-01T05:32:11;10.31;78.16
72277;SHT30;61204;49.980;8.358;2023-04-01T05:34:37;10.35;77.90
72277;SHT30;61204;49.980;8.358;2023-04-01T05:37:02;10.35;77.81
72277;SHT30;61204;49.980;8.358;2023-04-01T05:39:27;10.34;78.17
72277;SHT30;61204;49.980;8.358;2023-04-01T05:41:53;10.38;78.03
72277;SHT30;61204;49.980;8.358;2023-04-01T05:44:18;10.37;78.10
72277;SHT30;61204;49.980;8.358;2023-04-01T05:46:44;10.32;78.46
72277;SHT30;61204;49.980;8.358;2023-04-01T05:49:12;10.37;77.69
72277;SHT30;61204;49.980;8.358;2023-04-01T05:51:37;10.32;78.20
72277;SHT30;61204;49.980;8.358;2023-04-01T05:54:05;10.37;77.52
72277;SHT30;61204;49.980;8.358;2023-04-01T05:56:30;10.39;77.52
72277;SHT30;61204;49.980;8.358;2023-04-01T05:58:56;10.32;77.97
72277;SHT30;61204;49.980;8.358;2023-04-01T06:01:21;10.34;78.28
72277;SHT30;61204;49.980;8.358;2023-04-01T06:03:47;10.39;76.89
72277;SHT30;61204;49.980;8.358;2023-04-01T06:06:23;10.48;77.04
72277;SHT30;61204;49.980;8.358;2023-04-01T06:08:51;10.48;76.79
72277;SHT30;61204;49.980;8.358;2023-04-01T06:14:16;10.53;76.76
72277;SHT30;61204;49.980;8.358;2023-04-01T06:19:41;10.41;77.35
72277;SHT30;61204;49.980;8.358;2023-04-01T06:22:22;10.50;76.72
72277;SHT30;61204;49.980;8.358;2023-04-01T06:24:59;10.62;76.41
72277;SHT30;61204;49.980;8.358;2023-04-01T06:35:38;10.55;76.74
72277;SHT30;61204;49.980;8.358;2023-04-01T06:41:25;10.70;76.20
72277;SHT30;61204;49.980;8.358;2023-04-01T06:47:20;10.76;76.64
72277;SHT30;61204;49.980;8.358;2023-04-01T06:55:53;10.75;76.70
72277;SHT30;61204;49.980;8.358;2023-04-01T06:58:35;10.77;76.78
72277;SHT30;61204;49.980;8.358;2023-04-01T07:01:09;10.73;77.52
72277;SHT30;61204;49.980;8.358;2023-04-01T07:03:49;10.76;77.44
72277;SHT30;61204;49.980;8.358;2023-04-01T07:06:30;10.86;77.51
72277;SHT30;61204;49.980;8.358;2023-04-01T07:09:04;10.89;78.21
72277;SHT30;61204;49.980;8.358;2023-04-01T07:11:36;10.89;78.07
72277;SHT30;61204;49.980;8.358;2023-04-01T07:14:16;10.89;78.68
72277;SHT30;61204;49.980;8.358;2023-04-01T07:16:51;10.94;78.51
72277;SHT30;61204;49.980;8.358;2023-04-01T07:19:29;11.06;77.58
72277;SHT30;61204;49.980;8.358;2023-04-01T07:22:06;11.06;78.67
72277;SHT30;61204;49.980;8.358;2023-04-01T07:24:46;11.17;78.23
72277;SHT30;61204;49.980;8.358;2023-04-01T07:27:13;11.25;76.92
72277;SHT30;61204;49.980;8.358;2023-04-01T07:29:40;11.21;76.92
72277;SHT30;61204;49.980;8.358;2023-04-01T07:32:32;11.25;76.24
72277;SHT30;61204;49.980;8.358;2023-04-01T07:44:40;11.52;75.27
72277;SHT30;61204;49.980;8.358;2023-04-01T07:50:08;11.59;75.30
72277;SHT30;61204;49.980;8.358;2023-04-01T07:55:35;11.67;74.97
72277;SHT30;61204;49.980;8.358;2023-04-01T07:58:40;11.73;75.04
72277;SHT30;61204;49.980;8.358;2023-04-01T08:04:34;11.83;75.32
72277;SHT30;61204;49.980;8.358;2023-04-01T08:07:25;11.87;76.00
72277;SHT30;61204;49.980;8.358;2023-04-01T08:10:14;11.76;77.62
72277;SHT30;61204;49.980;8.358;2023-04-01T08:16:37;11.36;79.78
72277;SHT30;61204;49.980;8.358;2023-04-01T08:22:11;11.06;80.83
72277;SHT30;61204;49.980;8.358;2023-04-01T08:24:48;11.01;81.25
72277;SHT30;61204;49.980;8.358;2023-04-01T08:27:17;11.01;82.11
72277;SHT30;61204;49.980;8.358;2023-04-01T08:32:28;11.06;82.84
72277;SHT30;61204;49.980;8.358;2023-04-01T08:37:53;11.14;83.09
72277;SHT30;61204;49.980;8.358;2023-04-01T08:43:35;11.07;83.92
72277;SHT30;61204;49.980;8.358;2023-04-01T08:52:29;11.13;84.48
72277;SHT30;61204;49.980;8.358;2023-04-01T09:01:32;11.30;84.70
72277;SHT30;61204;49.980;8.358;2023-04-01T09:10:02;11.18;85.23
72277;SHT30;61204;49.980;8.358;2023-04-01T09:12:52;11.08;85.63
72277;SHT30;61204;49.980;8.358;2023-04-01T09:16:17;11.00;86.50
72277;SHT30;61204;49.980;8.358;2023-04-01T09:19:25;10.99;87.38
72277;SHT30;61204;49.980;8.358;2023-04-01T09:22:42;10.86;88.23
72277;SHT30;61204;49.980;8.358;2023-04-01T09:25:26;10.86;88.69
72277;SHT30;61204;49.980;8.358;2023-04-01T09:28:17;10.84;89.35
72277;SHT30;61204;49.980;8.358;2023-04-01T09:36:45;10.89;89.64
72277;SHT30;61204;49.980;8.358;2023-04-01T09:44:59;10.94;91.06
72277;SHT30;61204;49.980;8.358;2023-04-01T09:50:44;11.00;91.21
72277;SHT30;61204;49.980;8.358;2023-04-01T10:00:32;11.31;90.11
72277;SHT30;61204;49.980;8.358;2023-04-01T10:10:30;11.73;88.42
72277;SHT30;61204;49.980;8.358;2023-04-01T10:18:31;11.72;88.76
72277;SHT30;61204;49.980;8.358;2023-04-01T10:21:30;11.73;90.03
72277;SHT30;61204;49.980;8.358;2023-04-01T10:27:01;11.52;88.36
72277;SHT30;61204;49.980;8.358;2023-04-01T10:53:19;11.91;88.04
72277;SHT30;61204;49.980;8.358;2023-04-01T11:02:28;12.11;86.40
72277;SHT30;61204;49.980;8.358;2023-04-01T11:21:23;12.52;86.05
72277;SHT30;61204;49.980;8.358;2023-04-01T11:32:22;12.13;87.31
72277;SHT30;61204;49.980;8.358;2023-04-01T11:35:22;12.05;87.53
72277;SHT30;61204;49.980;8.358;2023-04-01T11:38:10;12.16;87.84
72277;SHT30;61204;49.980;8.358;2023-04-01T11:41:25;12.27;88.22
72277;SHT30;61204;49.980;8.358;2023-04-01T11:52:19;12.37;86.70
72277;SHT30;61204;49.980;8.358;2023-04-01T11:55:11;12.53;85.16
72277;SHT30;61204;49.980;8.358;2023-04-01T11:58:11;12.41;85.69
72277;SHT30;61204;49.980;8.358;2023-04-01T12:10:39;11.94;88.11
72277;SHT30;61204;49.980;8.358;2023-04-01T12:16:43;11.93;89.97
72277;SHT30;61204;49.980;8.358;2023-04-01T12:19:20;11.98;90.74
72277;SHT30;61204;49.980;8.358;2023-04-01T12:24:48;11.83;90.49
72277;SHT30;61204;49.980;8.358;2023-04-01T12:36:32;12.20;91.61
72277;SHT30;61204;49.980;8.358;2023-04-01T12:39:29;12.37;90.65
72277;SHT30;61204;49.980;8.358;2023-04-01T12:42:31;12.28;90.22
72277;SHT30;61204;49.980;8.358;2023-04-01T12:54:35;11.24;91.90
72277;SHT30;61204;49.980;8.358;2023-04-01T13:06:33;11.03;94.37
72277;SHT30;61204;49.980;8.358;2023-04-01T13:15:28;11.43;93.66
72277;SHT30;61204;49.980;8.358;2023-04-01T13:18:20;11.51;93.27
72277;SHT30;61204;49.980;8.358;2023-04-01T13:23:56;11.51;92.80
72277;SHT30;61204;49.980;8.358;2023-04-01T13:26:43;11.51;91.98
72277;SHT30;61204;49.980;8.358;2023-04-01T13:30:07;11.52;93.16
72277;SHT30;61204;49.980;8.358;2023-04-01T13:33:03;11.51;92.67
72277;SHT30;61204;49.980;8.358;2023-04-01T13:44:37;11.56;92.28
72277;SHT30;61204;49.980;8.358;2023-04-01T13:50:01;11.72;92.09
72277;SHT30;61204;49.980;8.358;2023-04-01T13:52:47;11.97;91.92
72277;SHT30;61204;49.980;8.358;2023-04-01T14:01:57;12.55;87.35
72277;SHT30;61204;49.980;8.358;2023-04-01T14:10:39;12.49;86.11
72277;SHT30;61204;49.980;8.358;2023-04-01T14:13:46;12.42;86.66
72277;SHT30;61204;49.980;8.358;2023-04-01T14:16:47;12.49;86.72
72277;SHT30;61204;49.980;8.358;2023-04-01T14:25:52;12.52;84.84
72277;SHT30;61204;49.980;8.358;2023-04-01T14:45:51;12.39;83.05
72277;SHT30;61204;49.980;8.358;2023-04-01T14:48:51;12.44;84.03
72277;SHT30;61204;49.980;8.358;2023-04-01T14:51:39;12.31;84.20
72277;SHT30;61204;49.980;8.358;2023-04-01T14:54:14;12.38;85.16
72277;SHT30;61204;49.980;8.358;2023-04-01T14:56:49;12.42;84.73
72277;SHT30;61204;49.980;8.358;2023-04-01T14:59:27;12.37;84.76
72277;SHT30;61204;49.980;8.358;2023-04-01T15:07:50;12.21;84.79
72277;SHT30;61204;49.980;8.358;2023-04-01T15:11:11;12.25;82.12
72277;SHT30;61204;49.980;8.358;2023-04-01T15:28:10;13.15;79.36
72277;SHT30;61204;49.980;8.358;2023-04-01T15:34:05;13.24;79.11
72277;SHT30;61204;49.980;8.358;2023-04-01T15:39:40;13.17;79.75
72277;SHT30;61204;49.980;8.358;2023-04-01T16:00:21;12.58;82.13
72277;SHT30;61204;49.980;8.358;2023-04-01T16:09:24;12.35;84.59
72277;SHT30;61204;49.980;8.358;2023-04-01T16:15:51;12.00;86.28
72277;SHT30;61204;49.980;8.358;2023-04-01T16:21:36;11.97;86.30
72277;SHT30;61204;49.980;8.358;2023-04-01T16:26:50;12.07;85.27
72277;SHT30;61204;49.980;8.358;2023-04-01T16:32:58;11.98;84.57
72277;SHT30;61204;49.980;8.358;2023-04-01T16:35:43;11.98;85.14
72277;SHT30;61204;49.980;8.358;2023-04-01T16:41:18;11.89;85.63
72277;SHT30;61204;49.980;8.358;2023-04-01T16:43:53;11.93;85.05
72277;SHT30;61204;49.980;8.358;2023-04-01T16:46:37;11.97;84.26
72277;SHT30;61204;49.980;8.358;2023-04-01T16:52:00;11.76;84.00
72277;SHT30;61204;49.980;8.358;2023-04-01T16:54:36;11.69;84.09
72277;SHT30;61204;49.980;8.358;2023-04-01T16:59:50;11.80;84.05
72277;SHT30;61204;49.980;8.358;2023-04-01T17:02:24;11.77;83.71
72277;SHT30;61204;49.980;8.358;2023-04-01T17:05:08;11.79;83.73
72277;SHT30;61204;49.980;8.358;2023-04-01T17:22:07;11.65;82.95
72277;SHT30;61204;49.980;8.358;2023-04-01T17:28:08;11.61;83.40
72277;SHT30;61204;49.980;8.358;2023-04-01T17:33:41;11.52;83.72
72277;SHT30;61204;49.980;8.358;2023-04-01T17:36:47;11.45;84.30
72277;SHT30;61204;49.980;8.358;2023-04-01T17:42:38;11.28;85.18
72277;SHT30;61204;49.980;8.358;2023-04-01T17:47:58;11.22;85.65
72277;SHT30;61204;49.980;8.358;2023-04-01T17:50:43;11.18;85.97
72277;SHT30;61204;49.980;8.358;2023-04-01T17:53:30;11.15;85.06
72277;SHT30;61204;49.980;8.358;2023-04-01T17:59:37;11.13;84.86
72277;SHT30;61204;49.980;8.358;2023-04-01T18:02:38;11.14;85.04
72277;SHT30;61204;49.980;8.358;2023-04-01T18:17:51;11.03;83.77
72277;SHT30;61204;49.980;8.358;2023-04-01T18:20:31;11.07;83.65
72277;SHT30;61204;49.980;8.358;2023-04-01T18:23:12;11.01;83.86
72277;SHT30;61204;49.980;8.358;2023-04-01T18:25:50;10.99;83.86
72277;SHT30;61204;49.980;8.358;2023-04-01T18:31:19;10.94;83.75
72277;SHT30;61204;49.980;8.358;2023-04-01T18:33:59;10.90;83.97
72277;SHT30;61204;49.980;8.358;2023-04-01T18:36:44;10.96;83.53
72277;SHT30;61204;49.980;8.358;2023-04-01T18:39:33;10.94;83.77
72277;SHT30;61204;49.980;8.358;2023-04-01T18:45:23;10.93;83.72
72277;SHT30;61204;49.980;8.358;2023-04-01T18:51:13;10.77;84.55
72277;SHT30;61204;49.980;8.358;2023-04-01T18:53:52;10.69;84.99
72277;SHT30;61204;49.980;8.358;2023-04-01T18:56:38;10.66;84.84
72277;SHT30;61204;49.980;8.358;2023-04-01T18:59:34;10.60;84.97
72277;SHT30;61204;49.980;8.358;2023-04-01T19:02:17;10.46;85.52
72277;SHT30;61204;49.980;8.358;2023-04-01T19:05:04;10.45;85.37
72277;SHT30;61204;49.980;8.358;2023-04-01T19:07:48;10.50;84.83
72277;SHT30;61204;49.980;8.358;2023-04-01T19:17:00;10.21;85.84
72277;SHT30;61204;49.980;8.358;2023-04-01T19:21:37;10.17;86.24
72277;SHT30;61204;49.980;8.358;2023-04-01T19:27:34;10.18;85.87
72277;SHT30;61204;49.980;8.358;2023-04-01T19:30:32;10.15;86.12
72277;SHT30;61204;49.980;8.358;2023-04-01T19:36:06;10.15;85.71
72277;SHT30;61204;49.980;8.358;2023-04-01T19:38:43;10.05;86.25
72277;SHT30;61204;49.980;8.358;2023-04-01T19:44:28;9.91;87.05
72277;SHT30;61204;49.980;8.358;2023-04-01T19:47:41;9.94;86.98
72277;SHT30;61204;49.980;8.358;2023-04-01T19:50:20;9.89;87.24
72277;SHT30;61204;49.980;8.358;2023-04-01T19:56:24;9.94;86.85
72277;SHT30;61204;49.980;8.358;2023-04-01T20:04:47;9.87;86.94
72277;SHT30;61204;49.980;8.358;2023-04-01T20:10:33;9.91;86.66
72277;SHT30;61204;49.980;8.358;2023-04-01T20:16:04;9.87;86.79
72277;SHT30;61204;49.980;8.358;2023-04-01T20:24:04;9.94;86.56
72277;SHT30;61204;49.980;8.358;2023-04-01T20:27:03;9.89;86.81
72277;SHT30;61204;49.980;8.358;2023-04-01T20:37:41;9.94;86.42
72277;SHT30;61204;49.980;8.358;2023-04-01T20:43:33;9.94;86.30
72277;SHT30;61204;49.980;8.358;2023-04-01T20:46:19;9.93;86.59
72277;SHT30;61204;49.980;8.358;2023-04-01T20:52:02;9.94;86.45
72277;SHT30;61204;49.980;8.358;2023-04-01T21:29:48;10.13;86.51
72277;SHT30;61204;49.980;8.358;2023-04-01T21:35:19;10.17;86.80
72277;SHT30;61204;49.980;8.358;2023-04-01T21:38:00;10.14;86.86
72277;SHT30;61204;49.980;8.358;2023-04-01T21:41:35;10.05;87.28
72277;SHT30;61204;49.980;8.358;2023-04-01T21:46:38;10.03;87.56
72277;SHT30;61204;49.980;8.358;2023-04-01T22:07:48;10.07;87.12
72277;SHT30;61204;49.980;8.358;2023-04-01T22:13:21;10.03;87.24
72277;SHT30;61204;49.980;8.358;2023-04-01T22:18:44;10.08;86.93
72277;SHT30;61204;49.980;8.358;2023-04-01T22:21:24;10.04;87.18
72277;SHT30;61204;49.980;8.358;2023-04-01T22:24:19;9.98;87.52
72277;SHT30;61204;49.980;8.358;2023-04-01T22:27:07;9.94;87.84
72277;SHT30;61204;49.980;8.358;2023-04-01T22:32:50;10.03;87.73
72277;SHT30;61204;49.980;8.358;2023-04-01T22:35:36;9.96;87.84
72277;SHT30;61204;49.980;8.358;2023-04-01T22:45:45;9.80;88.91
72277;SHT30;61204;49.980;8.358;2023-04-01T22:48:25;9.85;89.18
72277;SHT30;61204;49.980;8.358;2023-04-01T22:54:14;9.69;89.61
72277;SHT30;61204;49.980;8.358;2023-04-01T22:56:53;9.63;89.84
72277;SHT30;61204;49.980;8.358;2023-04-01T22:59:48;9.62;90.06
72277;SHT30;61204;49.980;8.358;2023-04-01T23:02:31;9.60;90.24
72277;SHT30;61204;49.980;8.358;2023-04-01T23:05:03;9.63;89.94
72277;SHT30;61204;49.980;8.358;2023-04-01T23:12:51;9.63;89.81
72277;SHT30;61204;49.980;8.358;2023-04-01T23:15:19;9.60;89.86
72277;SHT30;61204;49.980;8.358;2023-04-01T23:23:41;9.65;89.83
72277;SHT30;61204;49.980;8.358;2023-04-01T23:29:39;9.82;88.82
72277;SHT30;61204;49.980;8.358;2023-04-01T23:32:05;9.91;88.15
72277;SHT30;61204;49.980;8.358;2023-04-01T23:34:49;9.82;88.51
72277;SHT30;61204;49.980;8.358;2023-04-01T23:37:17;9.86;88.23
72277;SHT30;61204;49.980;8.358;2023-04-01T23:39:50;9.82;88.43
72277;SHT30;61204;49.980;8.358;2023-04-01T23:42:32;9.85;88.17
72277;SHT30;61204;49.980;8.358;2023-04-01T23:45:13;9.91;87.70
72277;SHT30;61204;49.980;8.358;2023-04-01T23:47:48;9.90;87.58
72277;SHT30;61204;49.980;8.358;2023-04-01T23:50:21;9.86;87.62
72277;SHT30;61204;49.980;8.358;2023-04-01T23:52:55;9.80;87.74
72277;SHT30;61204;49.980;8.358;2023-04-01T23:55:31;9.83;87.54
72277;SHT30;61204;49.980;8.358;2023-04-01T23:58:24;9.83;87.15
